Terminal Aerodrome Forecast
Issued by NWS Cleveland, OH

Home | Current Version | Previous Version | Graphics & Text | Print | Product List | Glossary On
Versions: 1 2 3 4 5 6 7 8 9 10 11 12 13 14 15 16 17 18 19 20 21 22 23 24 25 26
295
FTUS41 KCLE 072331
TAFMFD
TAF
KMFD 072331Z 0800/0824 20012G18KT P6SM BKN120
     FM080600 20008KT 6SM -RA BR OVC045
      TEMPO 0806/0810 4SM -RASN BR OVC015
     FM081000 20006KT 4SM -RASN BR OVC012
     FM081300 24006KT 1 1/2SM -SN BR OVC006
     FM081800 27012KT 3SM BR OVC012=

USA.gov is the U.S. government's official web portal to all federal, state and local government web resources and services.